sensor_id;sensor_type;location;lat;lon;timestamp;pressure;altitude;pressure_sealevel;temperature;humidity
75640;BME280;64233;51.486;6.332;2023-05-07T00:00:18;101325.41;;;13.08;100.00
75640;BME280;64233;51.486;6.332;2023-05-07T00:02:47;101324.63;;;13.07;100.00
75640;BME280;64233;51.486;6.332;2023-05-07T00:05:12;101321.91;;;13.07;100.00
75640;BME280;64233;51.486;6.332;2023-05-07T00:07:38;101319.47;;;13.06;100.00
75640;BME280;64233;51.486;6.332;2023-05-07T00:10:04;101329.19;;;13.07;100.00
75640;BME280;64233;51.486;6.332;2023-05-07T00:12:31;101321.91;;;13.07;100.00
75640;BME280;64233;51.486;6.332;2023-05-07T00:14:58;101318.91;;;13.04;100.00
75640;BME280;64233;51.486;6.332;2023-05-07T00:17:24;101314.34;;;13.04;100.00
75640;BME280;64233;51.486;6.332;2023-05-07T00:19:49;101309.50;;;13.06;100.00
75640;BME280;64233;51.486;6.332;2023-05-07T00:22:14;101311.06;;;13.02;100.00
75640;BME280;64233;51.486;6.332;2023-05-07T00:24:40;101312.97;;;13.02;100.00
75640;BME280;64233;51.486;6.332;2023-05-07T00:27:05;101314.03;;;13.01;100.00
75640;BME280;64233;51.486;6.332;2023-05-07T00:29:30;101305.13;;;13.00;100.00
75640;BME280;64233;51.486;6.332;2023-05-07T00:31:56;101308.88;;;12.99;100.00
75640;BME280;64233;51.486;6.332;2023-05-07T00:34:21;101311.03;;;12.97;100.00
75640;BME280;64233;51.486;6.332;2023-05-07T00:36:47;101311.59;;;12.99;100.00
75640;BME280;64233;51.486;6.332;2023-05-07T00:39:12;101310.78;;;12.99;100.00
75640;BME280;64233;51.486;6.332;2023-05-07T00:41:37;101311.84;;;12.98;100.00
75640;BME280;64233;51.486;6.332;2023-05-07T00:44:03;101313.72;;;12.97;100.00
75640;BME280;64233;51.486;6.332;2023-05-07T00:46:30;101313.72;;;12.97;100.00
75640;BME280;64233;51.486;6.332;2023-05-07T00:48:56;101305.06;;;12.95;100.00
75640;BME280;64233;51.486;6.332;2023-05-07T00:51:21;101303.44;;;12.94;100.00
75640;BME280;64233;51.486;6.332;2023-05-07T00:53:47;101299.94;;;12.94;100.00
75640;BME280;64233;51.486;6.332;2023-05-07T00:56:13;101299.69;;;12.95;100.00
75640;BME280;64233;51.486;6.332;2023-05-07T00:58:38;101299.44;;;12.97;100.00
75640;BME280;64233;51.486;6.332;2023-05-07T01:01:04;101301.56;;;12.95;100.00
75640;BME280;64233;51.486;6.332;2023-05-07T01:03:29;101292.91;;;12.92;100.00
75640;BME280;64233;51.486;6.332;2023-05-07T01:05:55;101294.00;;;12.91;100.00
75640;BME280;64233;51.486;6.332;2023-05-07T01:08:23;101292.38;;;12.90;100.00
75640;BME280;64233;51.486;6.332;2023-05-07T01:10:50;101298.31;;;12.92;100.00
75640;BME280;64233;51.486;6.332;2023-05-07T01:13:18;101292.38;;;12.90;100.00
75640;BME280;64233;51.486;6.332;2023-05-07T01:15:44;101298.81;;;12.89;100.00
75640;BME280;64233;51.486;6.332;2023-05-07T01:18:10;101293.13;;;12.86;100.00
75640;BME280;64233;51.486;6.332;2023-05-07T01:20:35;101290.69;;;12.84;100.00
75640;BME280;64233;51.486;6.332;2023-05-07T01:23:01;101289.31;;;12.82;100.00
75640;BME280;64233;51.486;6.332;2023-05-07T01:25:28;101289.56;;;12.80;100.00
75640;BME280;64233;51.486;6.332;2023-05-07T01:27:53;101290.63;;;12.79;100.00
75640;BME280;64233;51.486;6.332;2023-05-07T01:30:20;101287.13;;;12.79;100.00
75640;BME280;64233;51.486;6.332;2023-05-07T01:32:53;101288.44;;;12.76;100.00
75640;BME280;64233;51.486;6.332;2023-05-07T01:35:27;101291.41;;;12.74;100.00
75640;BME280;64233;51.486;6.332;2023-05-07T01:37:54;101296.53;;;12.76;100.00
75640;BME280;64233;51.486;6.332;2023-05-07T01:40:20;101300.03;;;12.77;100.00
75640;BME280;64233;51.486;6.332;2023-05-07T01:42:45;101292.19;;;12.75;100.00
75640;BME280;64233;51.486;6.332;2023-05-07T01:45:11;101299.47;;;12.74;100.00
75640;BME280;64233;51.486;6.332;2023-05-07T01:47:37;101292.47;;;12.73;100.00
75640;BME280;64233;51.486;6.332;2023-05-07T01:50:05;101290.03;;;12.72;100.00
75640;BME280;64233;51.486;6.332;2023-05-07T01:52:30;101287.84;;;12.69;100.00
75640;BME280;64233;51.486;6.332;2023-05-07T01:54:56;101282.94;;;12.66;100.00
75640;BME280;64233;51.486;6.332;2023-05-07T01:57:21;101278.88;;;12.63;100.00
75640;BME280;64233;51.486;6.332;2023-05-07T01:59:46;101270.81;;;12.63;100.00
75640;BME280;64233;51.486;6.332;2023-05-07T02:02:12;101275.06;;;12.59;100.00
75640;BME280;64233;51.486;6.332;2023-05-07T02:04:37;101271.28;;;12.60;100.00
75640;BME280;64233;51.486;6.332;2023-05-07T02:07:02;101267.72;;;12.54;100.00
75640;BME280;64233;51.486;6.332;2023-05-07T02:09:27;101277.69;;;12.54;100.00
75640;BME280;64233;51.486;6.332;2023-05-07T02:11:53;101276.63;;;12.55;100.00
75640;BME280;64233;51.486;6.332;2023-05-07T02:14:18;101267.16;;;12.52;100.00
75640;BME280;64233;51.486;6.332;2023-05-07T02:16:45;101265.00;;;12.49;100.00
75640;BME280;64233;51.486;6.332;2023-05-07T02:19:10;101260.38;;;12.45;100.00
75640;BME280;64233;51.486;6.332;2023-05-07T02:21:35;101277.88;;;12.47;100.00
75640;BME280;64233;51.486;6.332;2023-05-07T02:24:01;101277.88;;;12.47;100.00
75640;BME280;64233;51.486;6.332;2023-05-07T02:26:26;101278.13;;;12.46;100.00
75640;BME280;64233;51.486;6.332;2023-05-07T02:28:51;101276.53;;;12.45;100.00
75640;BME280;64233;51.486;6.332;2023-05-07T02:31:17;101277.56;;;12.44;100.00
75640;BME280;64233;51.486;6.332;2023-05-07T02:33:42;101275.38;;;12.40;100.00
75640;BME280;64233;51.486;6.332;2023-05-07T02:36:09;101272.13;;;12.38;100.00
75640;BME280;64233;51.486;6.332;2023-05-07T02:38:34;101269.38;;;12.33;100.00
75640;BME280;64233;51.486;6.332;2023-05-07T02:41:00;101276.34;;;12.29;100.00
75640;BME280;64233;51.486;6.332;2023-05-07T02:43:25;101274.38;;;12.25;100.00
75640;BME280;64233;51.486;6.332;2023-05-07T02:46:06;101270.63;;;12.26;100.00
75640;BME280;64233;51.486;6.332;2023-05-07T02:48:32;101268.44;;;12.22;100.00
75640;BME280;64233;51.486;6.332;2023-05-07T02:50:58;101280.00;;;12.23;100.00
75640;BME280;64233;51.486;6.332;2023-05-07T02:53:23;101275.44;;;12.23;100.00
75640;BME280;64233;51.486;6.332;2023-05-07T02:55:52;101275.19;;;12.25;100.00
75640;BME280;64233;51.486;6.332;2023-05-07T02:58:17;101290.25;;;12.26;100.00
75640;BME280;64233;51.486;6.332;2023-05-07T03:00:42;101287.34;;;12.28;100.00
75640;BME280;64233;51.486;6.332;2023-05-07T03:03:07;101288.91;;;12.23;100.00
75640;BME280;64233;51.486;6.332;2023-05-07T03:05:33;101291.53;;;12.18;100.00
75640;BME280;64233;51.486;6.332;2023-05-07T03:07:58;101286.38;;;12.17;100.00
75640;BME280;64233;51.486;6.332;2023-05-07T03:10:23;101294.13;;;12.13;100.00
75640;BME280;64233;51.486;6.332;2023-05-07T03:12:48;101290.63;;;12.13;100.00
75640;BME280;64233;51.486;6.332;2023-05-07T03:15:14;101290.13;;;12.16;100.00
75640;BME280;64233;51.486;6.332;2023-05-07T03:17:39;101292.41;;;12.24;100.00
75640;BME280;64233;51.486;6.332;2023-05-07T03:20:05;101290.50;;;12.25;100.00
75640;BME280;64233;51.486;6.332;2023-05-07T03:22:31;101286.69;;;12.20;100.00
75640;BME280;64233;51.486;6.332;2023-05-07T03:24:56;101285.34;;;12.18;100.00
75640;BME280;64233;51.486;6.332;2023-05-07T03:27:21;101279.38;;;12.16;100.00
75640;BME280;64233;51.486;6.332;2023-05-07T03:29:47;101277.19;;;12.13;100.00
75640;BME280;64233;51.486;6.332;2023-05-07T03:32:12;101283.63;;;12.12;100.00
75640;BME280;64233;51.486;6.332;2023-05-07T03:34:38;101281.19;;;12.10;100.00
75640;BME280;64233;51.486;6.332;2023-05-07T03:37:03;101273.94;;;12.11;100.00
75640;BME280;64233;51.486;6.332;2023-05-07T03:39:28;101271.16;;;12.05;100.00
75640;BME280;64233;51.486;6.332;2023-05-07T03:41:53;101271.97;;;12.06;100.00
75640;BME280;64233;51.486;6.332;2023-05-07T03:44:19;101275.50;;;12.07;100.00
75640;BME280;64233;51.486;6.332;2023-05-07T03:46:45;101275.75;;;12.05;100.00
75640;BME280;64233;51.486;6.332;2023-05-07T03:49:10;101281.34;;;12.03;100.00
75640;BME280;64233;51.486;6.332;2023-05-07T03:51:35;101272.16;;;11.99;100.00
75640;BME280;64233;51.486;6.332;2023-05-07T03:54:01;101273.72;;;11.95;100.00
75640;BME280;64233;51.486;6.332;2023-05-07T03:56:26;101273.72;;;11.95;100.00
75640;BME280;64233;51.486;6.332;2023-05-07T03:58:53;101274.78;;;11.94;100.00
75640;BME280;64233;51.486;6.332;2023-05-07T04:01:18;101276.97;;;11.97;100.00
75640;BME280;64233;51.486;6.332;2023-05-07T04:03:43;101274.28;;;11.97;100.00
75640;BME280;64233;51.486;6.332;2023-05-07T04:06:08;101276.16;;;11.97;100.00
75640;BME280;64233;51.486;6.332;2023-05-07T04:08:34;101281.78;;;11.95;100.00
75640;BME280;64233;51.486;6.332;2023-05-07T04:10:59;101281.78;;;11.95;100.00
75640;BME280;64233;51.486;6.332;2023-05-07T04:13:25;101284.94;;;11.92;100.00
75640;BME280;64233;51.486;6.332;2023-05-07T04:15:51;101283.88;;;11.93;100.00
75640;BME280;64233;51.486;6.332;2023-05-07T04:18:16;101288.22;;;11.94;100.00
75640;BME280;64233;51.486;6.332;2023-05-07T04:20:41;101287.63;;;11.92;100.00
75640;BME280;64233;51.486;6.332;2023-05-07T04:23:07;101283.88;;;11.93;100.00
75640;BME280;64233;51.486;6.332;2023-05-07T04:25:32;101290.91;;;11.94;100.00
75640;BME280;64233;51.486;6.332;2023-05-07T04:27:58;101291.13;;;11.93;100.00
75640;BME280;64233;51.486;6.332;2023-05-07T04:30:23;101290.13;;;11.94;100.00
75640;BME280;64233;51.486;6.332;2023-05-07T04:32:49;101293.00;;;11.92;100.00
75640;BME280;64233;51.486;6.332;2023-05-07T04:35:14;101291.94;;;11.93;100.00
75640;BME280;64233;51.486;6.332;2023-05-07T04:37:39;101298.19;;;11.94;100.00
75640;BME280;64233;51.486;6.332;2023-05-07T04:40:05;101293.63;;;11.94;100.00
75640;BME280;64233;51.486;6.332;2023-05-07T04:42:31;101287.72;;;11.97;100.00
75640;BME280;64233;51.486;6.332;2023-05-07T04:44:56;101288.53;;;11.98;100.00
75640;BME280;64233;51.486;6.332;2023-05-07T04:47:21;101290.75;;;12.01;100.00
75640;BME280;64233;51.486;6.332;2023-05-07T04:49:47;101293.44;;;12.01;100.00
75640;BME280;64233;51.486;6.332;2023-05-07T04:52:12;101296.13;;;12.01;100.00
75640;BME280;64233;51.486;6.332;2023-05-07T04:54:37;101286.72;;;12.03;100.00
75640;BME280;64233;51.486;6.332;2023-05-07T04:57:05;101291.38;;;12.08;100.00
75640;BME280;64233;51.486;6.332;2023-05-07T04:59:32;101292.06;;;12.20;100.00
75640;BME280;64233;51.486;6.332;2023-05-07T05:01:57;101291.72;;;12.34;100.00
75640;BME280;64233;51.486;6.332;2023-05-07T05:04:22;101288.72;;;12.52;100.00
75640;BME280;64233;51.486;6.332;2023-05-07T05:06:48;101301.41;;;12.57;100.00
75640;BME280;64233;51.486;6.332;2023-05-07T05:09:13;101296.97;;;12.68;100.00
75640;BME280;64233;51.486;6.332;2023-05-07T05:11:39;101297.44;;;12.87;100.00
75640;BME280;64233;51.486;6.332;2023-05-07T05:14:04;101304.69;;;13.36;100.00
75640;BME280;64233;51.486;6.332;2023-05-07T05:16:30;101297.75;;;13.18;100.00
75640;BME280;64233;51.486;6.332;2023-05-07T05:18:55;101293.78;;;13.25;100.00
75640;BME280;64233;51.486;6.332;2023-05-07T05:21:21;101302.47;;;13.33;100.00
75640;BME280;64233;51.486;6.332;2023-05-07T05:23:46;101304.06;;;13.29;100.00
75640;BME280;64233;51.486;6.332;2023-05-07T05:26:11;101301.75;;;13.15;100.00
75640;BME280;64233;51.486;6.332;2023-05-07T05:28:37;101299.72;;;13.27;100.00
75640;BME280;64233;51.486;6.332;2023-05-07T05:31:02;101306.88;;;13.39;100.00
75640;BME280;64233;51.486;6.332;2023-05-07T05:33:27;101305.63;;;13.52;100.00
75640;BME280;64233;51.486;6.332;2023-05-07T05:35:56;101314.03;;;13.55;100.00
75640;BME280;64233;51.486;6.332;2023-05-07T05:38:21;101319.16;;;13.57;100.00
75640;BME280;64233;51.486;6.332;2023-05-07T05:40:46;101316.47;;;13.62;100.00
75640;BME280;64233;51.486;6.332;2023-05-07T05:43:13;101315.75;;;13.72;100.00
75640;BME280;64233;51.486;6.332;2023-05-07T05:45:38;101319.81;;;13.74;100.00
75640;BME280;64233;51.486;6.332;2023-05-07T05:48:03;101324.75;;;13.83;100.00
75640;BME280;64233;51.486;6.332;2023-05-07T05:50:29;101320.72;;;13.90;100.00
75640;BME280;64233;51.486;6.332;2023-05-07T05:52:54;101316.69;;;13.88;100.00
75640;BME280;64233;51.486;6.332;2023-05-07T05:55:20;101322.69;;;14.00;100.00
75640;BME280;64233;51.486;6.332;2023-05-07T05:57:45;101323.00;;;14.04;100.00
75640;BME280;64233;51.486;6.332;2023-05-07T06:00:11;101328.94;;;14.06;100.00
75640;BME280;64233;51.486;6.332;2023-05-07T06:02:36;101321.34;;;14.03;100.00
75640;BME280;64233;51.486;6.332;2023-05-07T06:05:03;101324.59;;;14.00;100.00
75640;BME280;64233;51.486;6.332;2023-05-07T06:07:28;101326.72;;;13.98;100.00
75640;BME280;64233;51.486;6.332;2023-05-07T06:09:53;101338.94;;;14.05;100.00
75640;BME280;64233;51.486;6.332;2023-05-07T06:12:19;101341.09;;;14.08;100.00
75640;BME280;64233;51.486;6.332;2023-05-07T06:14:44;101345.97;;;14.11;100.00
75640;BME280;64233;51.486;6.332;2023-05-07T06:17:09;101351.19;;;14.23;100.00
75640;BME280;64233;51.486;6.332;2023-05-07T06:19:34;101344.97;;;14.23;100.00
75640;BME280;64233;51.486;6.332;2023-05-07T06:22:00;101347.66;;;14.23;100.00
75640;BME280;64233;51.486;6.332;2023-05-07T06:24:26;101343.59;;;14.20;100.00
75640;BME280;64233;51.486;6.332;2023-05-07T06:26:52;101347.41;;;14.24;100.00
75640;BME280;64233;51.486;6.332;2023-05-07T06:29:17;101343.66;;;14.31;100.00
75640;BME280;64233;51.486;6.332;2023-05-07T06:31:43;101346.09;;;14.32;100.00
75640;BME280;64233;51.486;6.332;2023-05-07T06:34:08;101343.09;;;14.28;100.00
75640;BME280;64233;51.486;6.332;2023-05-07T06:36:34;101342.84;;;14.30;100.00
75640;BME280;64233;51.486;6.332;2023-05-07T06:38:59;101333.41;;;14.33;100.00
75640;BME280;64233;51.486;6.332;2023-05-07T06:41:24;101336.41;;;14.36;100.00
75640;BME280;64233;51.486;6.332;2023-05-07T06:43:50;101338.84;;;14.43;100.00
75640;BME280;64233;51.486;6.332;2023-05-07T06:46:16;101338.84;;;14.43;100.00
75640;BME280;64233;51.486;6.332;2023-05-07T06:48:41;101343.44;;;14.42;100.00
75640;BME280;64233;51.486;6.332;2023-05-07T06:51:06;101346.72;;;14.44;100.00
75640;BME280;64233;51.486;6.332;2023-05-07T06:53:32;101350.78;;;14.52;100.00
75640;BME280;64233;51.486;6.332;2023-05-07T06:55:57;101343.78;;;14.56;100.00
75640;BME280;64233;51.486;6.332;2023-05-07T06:58:23;101352.00;;;14.72;100.00
75640;BME280;64233;51.486;6.332;2023-05-07T07:00:48;101354.97;;;14.80;100.00
75640;BME280;64233;51.486;6.332;2023-05-07T07:03:13;101357.72;;;15.01;100.00
75640;BME280;64233;51.486;6.332;2023-05-07T07:05:41;101357.78;;;15.17;100.00
75640;BME280;64233;51.486;6.332;2023-05-07T07:08:06;101360.78;;;15.30;100.00
75640;BME280;64233;51.486;6.332;2023-05-07T07:10:31;101354.50;;;15.09;100.00
75640;BME280;64233;51.486;6.332;2023-05-07T07:12:57;101355.91;;;15.27;100.00
75640;BME280;64233;51.486;6.332;2023-05-07T07:15:22;101358.63;;;15.27;100.00
75640;BME280;64233;51.486;6.332;2023-05-07T07:17:49;101356.47;;;15.40;100.00
75640;BME280;64233;51.486;6.332;2023-05-07T07:20:15;101364.06;;;15.48;100.00
75640;BME280;64233;51.486;6.332;2023-05-07T07:22:41;101361.34;;;15.43;100.00
75640;BME280;64233;51.486;6.332;2023-05-07T07:25:06;101353.25;;;15.58;100.00
75640;BME280;64233;51.486;6.332;2023-05-07T07:27:32;101357.31;;;15.81;100.00
75640;BME280;64233;51.486;6.332;2023-05-07T07:29:57;101363.25;;;15.99;100.00
75640;BME280;64233;51.486;6.332;2023-05-07T07:32:22;101361.34;;;16.15;100.00
75640;BME280;64233;51.486;6.332;2023-05-07T07:34:47;101366.47;;;16.16;100.00
75640;BME280;64233;51.486;6.332;2023-05-07T07:37:13;101362.72;;;16.02;100.00
75640;BME280;64233;51.486;6.332;2023-05-07T07:39:38;101370.81;;;16.12;100.00
75640;BME280;64233;51.486;6.332;2023-05-07T07:42:03;101375.69;;;16.15;100.00
75640;BME280;64233;51.486;6.332;2023-05-07T07:44:28;101368.88;;;16.28;100.00
75640;BME280;64233;51.486;6.332;2023-05-07T07:46:54;101375.44;;;16.12;100.00
75640;BME280;64233;51.486;6.332;2023-05-07T07:49:19;101374.03;;;16.35;100.00
75640;BME280;64233;51.486;6.332;2023-05-07T07:51:45;101376.19;;;16.38;100.00
75640;BME280;64233;51.486;6.332;2023-05-07T07:54:10;101380.25;;;16.35;100.00
75640;BME280;64233;51.486;6.332;2023-05-07T07:56:35;101384.56;;;16.37;100.00
75640;BME280;64233;51.486;6.332;2023-05-07T07:59:01;101381.81;;;16.52;100.00
75640;BME280;64233;51.486;6.332;2023-05-07T08:01:29;101384.25;;;16.59;100.00
75640;BME280;64233;51.486;6.332;2023-05-07T08:03:54;101388.28;;;16.61;100.00
75640;BME280;64233;51.486;6.332;2023-05-07T08:06:20;101387.16;;;16.73;100.00
75640;BME280;64233;51.486;6.332;2023-05-07T08:08:45;101391.78;;;16.72;100.00
75640;BME280;64233;51.486;6.332;2023-05-07T08:11:10;101390.47;;;16.59;100.00
75640;BME280;64233;51.486;6.332;2023-05-07T08:13:36;101396.41;;;16.66;100.00
75640;BME280;64233;51.486;6.332;2023-05-07T08:16:03;101393.66;;;16.77;100.00
75640;BME280;64233;51.486;6.332;2023-05-07T08:18:28;101396.34;;;16.77;100.00
75640;BME280;64233;51.486;6.332;2023-05-07T08:20:54;101386.91;;;16.69;100.00
75640;BME280;64233;51.486;6.332;2023-05-07T08:23:20;101391.72;;;16.87;100.00
75640;BME280;64233;51.486;6.332;2023-05-07T08:25:45;101395.22;;;16.98;100.00
75640;BME280;64233;51.486;6.332;2023-05-07T08:28:10;101391.66;;;17.08;100.00
75640;BME280;64233;51.486;6.332;2023-05-07T08:30:36;101389.69;;;17.19;100.00
75640;BME280;64233;51.486;6.332;2023-05-07T08:33:01;101386.50;;;17.07;100.00
75640;BME280;64233;51.486;6.332;2023-05-07T08:35:26;101401.47;;;16.99;100.00
75640;BME280;64233;51.486;6.332;2023-05-07T08:37:53;101389.06;;;16.77;100.00
75640;BME280;64233;51.486;6.332;2023-05-07T08:40:18;101391.78;;;16.77;100.00
75640;BME280;64233;51.486;6.332;2023-05-07T08:42:44;101395.75;;;17.00;100.00
75640;BME280;64233;51.486;6.332;2023-05-07T08:45:10;101389.56;;;16.79;100.00
75640;BME280;64233;51.486;6.332;2023-05-07T08:47:42;101394.13;;;16.99;100.00
75640;BME280;64233;51.486;6.332;2023-05-07T08:50:09;101394.09;;;17.04;100.00
75640;BME280;64233;51.486;6.332;2023-05-07T08:52:35;101394.44;;;16.87;100.00
75640;BME280;64233;51.486;6.332;2023-05-07T08:55:02;101388.69;;;16.99;100.00
75640;BME280;64233;51.486;6.332;2023-05-07T08:57:27;101386.16;;;17.18;100.00
75640;BME280;64233;51.486;6.332;2023-05-07T08:59:53;101391.13;;;17.06;100.00
75640;BME280;64233;51.486;6.332;2023-05-07T09:02:18;101393.53;;;17.13;100.00
75640;BME280;64233;51.486;6.332;2023-05-07T09:04:43;101395.16;;;17.09;100.00
75640;BME280;64233;51.486;6.332;2023-05-07T09:07:09;101396.59;;;17.41;100.00
75640;BME280;64233;51.486;6.332;2023-05-07T09:09:34;101402.00;;;17.46;100.00
75640;BME280;64233;51.486;6.332;2023-05-07T09:11:59;101391.41;;;17.49;100.00
75640;BME280;64233;51.486;6.332;2023-05-07T09:14:25;101396.97;;;17.63;100.00
75640;BME280;64233;51.486;6.332;2023-05-07T09:16:54;101398.28;;;17.31;100.00
75640;BME280;64233;51.486;6.332;2023-05-07T09:19:23;101394.16;;;17.39;100.00
75640;BME280;64233;51.486;6.332;2023-05-07T09:21:49;101401.56;;;17.68;100.00
75640;BME280;64233;51.486;6.332;2023-05-07T09:24:15;101402.72;;;17.96;100.00
75640;BME280;64233;51.486;6.332;2023-05-07T09:26:41;101399.06;;;17.77;100.00
75640;BME280;64233;51.486;6.332;2023-05-07T09:29:07;101403.19;;;18.03;100.00
75640;BME280;64233;51.486;6.332;2023-05-07T09:31:36;101401.59;;;18.27;100.00
75640;BME280;64233;51.486;6.332;2023-05-07T09:34:04;101399.69;;;18.27;100.00
75640;BME280;64233;51.486;6.332;2023-05-07T09:36:31;101392.84;;;18.35;100.00
75640;BME280;64233;51.486;6.332;2023-05-07T09:38:59;101396.31;;;18.65;100.00
75640;BME280;64233;51.486;6.332;2023-05-07T09:41:24;101390.13;;;19.02;100.00
75640;BME280;64233;51.486;6.332;2023-05-07T09:43:54;101398.38;;;19.16;100.00
75640;BME280;64233;51.486;6.332;2023-05-07T09:46:32;101396.53;;;19.31;100.00
75640;BME280;64233;51.486;6.332;2023-05-07T09:49:01;101387.94;;;19.42;100.00
75640;BME280;64233;51.486;6.332;2023-05-07T09:51:34;101389.63;;;19.19;100.00
75640;BME280;64233;51.486;6.332;2023-05-07T09:54:04;101396.75;;;19.34;100.00
75640;BME280;64233;51.486;6.332;2023-05-07T09:56:29;101397.44;;;19.45;100.00
75640;BME280;64233;51.486;6.332;2023-05-07T09:59:00;101387.72;;;19.20;100.00
75640;BME280;64233;51.486;6.332;2023-05-07T10:01:26;101392.47;;;19.47;100.00
75640;BME280;64233;51.486;6.332;2023-05-07T10:03:52;101392.19;;;19.49;100.00
75640;BME280;64233;51.486;6.332;2023-05-07T10:06:19;101395.88;;;19.20;100.00
75640;BME280;64233;51.486;6.332;2023-05-07T10:08:45;101392.56;;;19.42;100.00
75640;BME280;64233;51.486;6.332;2023-05-07T10:11:11;101400.31;;;19.87;100.00
75640;BME280;64233;51.486;6.332;2023-05-07T10:13:36;101400.06;;;20.02;100.00
75640;BME280;64233;51.486;6.332;2023-05-07T10:16:03;101392.66;;;19.89;100.00
75640;BME280;64233;51.486;6.332;2023-05-07T10:18:33;101389.81;;;19.80;100.00
75640;BME280;64233;51.486;6.332;2023-05-07T10:21:12;101389.88;;;19.75;100.00
75640;BME280;64233;51.486;6.332;2023-05-07T10:23:41;101392.78;;;19.78;100.00
75640;BME280;64233;51.486;6.332;2023-05-07T10:26:10;101386.09;;;19.19;100.00
75640;BME280;64233;51.486;6.332;2023-05-07T10:28:42;101386.31;;;19.03;100.00
75640;BME280;64233;51.486;6.332;2023-05-07T10:31:24;101393.97;;;19.20;100.00
75640;BME280;64233;51.486;6.332;2023-05-07T10:33:53;101398.50;;;19.63;100.00
75640;BME280;64233;51.486;6.332;2023-05-07T10:36:20;101392.28;;;19.76;100.00
75640;BME280;64233;51.486;6.332;2023-05-07T10:38:46;101393.41;;;19.75;100.00
75640;BME280;64233;51.486;6.332;2023-05-07T10:41:12;101394.28;;;19.71;100.00
75640;BME280;64233;51.486;6.332;2023-05-07T10:43:42;101384.06;;;19.63;100.00
75640;BME280;64233;51.486;6.332;2023-05-07T10:46:17;101387.00;;;19.85;100.00
75640;BME280;64233;51.486;6.332;2023-05-07T10:51:32;101396.78;;;20.33;100.00
75640;BME280;64233;51.486;6.332;2023-05-07T10:56:40;101402.44;;;19.90;100.00
75640;BME280;64233;51.486;6.332;2023-05-07T11:01:59;101395.09;;;19.90;100.00
75640;BME280;64233;51.486;6.332;2023-05-07T11:04:25;101399.38;;;19.77;100.00
75640;BME280;64233;51.486;6.332;2023-05-07T11:15:04;101393.34;;;20.27;100.00
75640;BME280;64233;51.486;6.332;2023-05-07T11:17:29;101400.09;;;20.58;100.00
75640;BME280;64233;51.486;6.332;2023-05-07T11:19:57;101386.09;;;19.90;100.00
75640;BME280;64233;51.486;6.332;2023-05-07T11:25:02;101383.44;;;20.32;100.00
75640;BME280;64233;51.486;6.332;2023-05-07T11:27:28;101385.28;;;20.50;100.00
75640;BME280;64233;51.486;6.332;2023-05-07T11:29:54;101390.50;;;20.60;100.00
75640;BME280;64233;51.486;6.332;2023-05-07T11:32:30;101389.41;;;20.61;100.00
75640;BME280;64233;51.486;6.332;2023-05-07T11:34:57;101384.75;;;20.48;100.00
75640;BME280;64233;51.486;6.332;2023-05-07T11:37:24;101382.91;;;20.16;100.00
75640;BME280;64233;51.486;6.332;2023-05-07T11:40:02;101384.16;;;20.37;100.00
75640;BME280;64233;51.486;6.332;2023-05-07T11:42:29;101382.22;;;20.52;100.00
75640;BME280;64233;51.486;6.332;2023-05-07T11:44:55;101381.53;;;20.46;100.00
75640;BME280;64233;51.486;6.332;2023-05-07T11:47:20;101391.59;;;20.18;100.00
75640;BME280;64233;51.486;6.332;2023-05-07T11:49:50;101390.22;;;19.87;100.00
75640;BME280;64233;51.486;6.332;2023-05-07T11:52:17;101390.66;;;20.08;100.00
75640;BME280;64233;51.486;6.332;2023-05-07T11:54:49;101392.38;;;19.90;100.00
75640;BME280;64233;51.486;6.332;2023-05-07T11:57:15;101393.28;;;20.00;100.00
75640;BME280;64233;51.486;6.332;2023-05-07T11:59:40;101397.34;;;20.16;100.00
75640;BME280;64233;51.486;6.332;2023-05-07T12:02:07;101391.66;;;19.85;100.00
75640;BME280;64233;51.486;6.332;2023-05-07T12:04:32;101400.13;;;19.97;100.00
75640;BME280;64233;51.486;6.332;2023-05-07T12:06:57;101403.84;;;20.20;100.00
75640;BME280;64233;51.486;6.332;2023-05-07T12:09:23;101395.97;;;20.19;100.00
75640;BME280;64233;51.486;6.332;2023-05-07T12:11:48;101395.63;;;20.06;100.00
75640;BME280;64233;51.486;6.332;2023-05-07T12:14:14;101394.78;;;19.92;100.00
75640;BME280;64233;51.486;6.332;2023-05-07T12:16:41;101398.31;;;19.92;100.00
75640;BME280;64233;51.486;6.332;2023-05-07T12:19:07;101401.38;;;20.05;100.00
75640;BME280;64233;51.486;6.332;2023-05-07T12:21:34;101397.78;;;20.23;100.00
75640;BME280;64233;51.486;6.332;2023-05-07T12:24:00;101395.66;;;20.20;100.00
75640;BME280;64233;51.486;6.332;2023-05-07T12:26:26;101396.44;;;20.21;100.00
75640;BME280;64233;51.486;6.332;2023-05-07T12:28:51;101394.81;;;20.06;100.00
75640;BME280;64233;51.486;6.332;2023-05-07T12:31:16;101396.81;;;19.86;100.00
75640;BME280;64233;51.486;6.332;2023-05-07T12:33:42;101395.53;;;19.78;100.00
75640;BME280;64233;51.486;6.332;2023-05-07T12:36:07;101394.50;;;19.93;100.00
75640;BME280;64233;51.486;6.332;2023-05-07T12:38:37;101395.72;;;20.01;100.00
75640;BME280;64233;51.486;6.332;2023-05-07T12:41:03;101402.81;;;20.16;100.00
75640;BME280;64233;51.486;6.332;2023-05-07T12:43:29;101406.63;;;20.15;100.00
75640;BME280;64233;51.486;6.332;2023-05-07T12:46:05;101399.56;;;20.14;100.00
75640;BME280;64233;51.486;6.332;2023-05-07T12:48:31;101399.16;;;20.07;100.00
75640;BME280;64233;51.486;6.332;2023-05-07T12:50:58;101404.22;;;20.13;100.00
75640;BME280;64233;51.486;6.332;2023-05-07T12:53:25;101405.69;;;20.06;100.00